Jacksonville, FL (32210)

2:12 AM EDT on May 30, 2017 (GMT -0400)
Ortega Forest | | Change Station

Elev 21 ft 30.26 °N, 81.70 °W | Updated 2 minutes ago

Partly Cloudy
Partly Cloudy
78.7 °F
Feels Like 82 °F
N
2.0
Wind Variable Wind from WNW
Gusts 3.0 mph

Today
High -- | Low -- °F
--% Chance of Precip.
Yesterday
High -- | Low -- °F
Precip. -- in
Pressure 30.06 in
Visibility 10.0 miles
Clouds Mostly Cloudy 25000 ft
Heat Index 82 °F
Dew Point 72 °F
Humidity 81%
Rainfall 0.00 in
Snow Depth Not available.
6:26 AM 8:23 PM
Waxing Crescent, 26% visible
METAR KNIP 300553Z 25006KT 10SM BKN250 27/22 A3007 RMK AO2 SLP179 T02670217 10317 20267 50003
Pressure 30.06 in
Visibility 10.0 miles
Clouds Mostly Cloudy 25000 ft
Heat Index 82 °F
Dew Point 72 °F
Humidity 81%
Rainfall 0.00 in
Snow Depth Not available.
6:26 AM 8:23 PM
Waxing Crescent, 26% visible
METAR KNIP 300553Z 25006KT 10SM BKN250 27/22 A3007 RMK AO2 SLP179 T02670217 10317 20267 50003

Get Severe Weather Alerts

Thanks for signing up!

Be on the lookout for a verification email in your inbox.

You'll start receiving the daily forecast at 6 AM.

×

10-Day Weather Forecast

Almanac

Astronomy

May. 30, 2017 Rise Set
Actual Time
Civil Twilight
Nautical Twilight
Astronomical Twilight
Moon
Length of Visible Light
Length of Day
Tomorrow will be .
, % of the Moon is Illuminated

Today's Extremes

State Highs State Lows

Community

WunderPhotos

Category 6

Welcome to Category 6. This is the collective home for Weather Underground's featured writeups by Dr. Jeff Masters (right), Bob Henson (left), Chris Burt, and other regular contributors.

Nearby

Air Quality

  Air Quality AQ Index Pollutant
Not available.

Snow Depth

Station Depth Elevation

Earthquake Activity

City Distance Mag. Time & Date
Minimum magnitude displayed is 2.5.

Coastal Water Temperatures

Place Temperature

Stations

Nearby Weather Stations

Station Location Temp. Windchill Dew Point Humidity Wind Precip. Elev Updated Type
                   

Watches & Warnings

There are currently no watches in effect.